sensor_id;sensor_type;location;lat;lon;timestamp;P1;durP1;ratioP1;P2;durP2;ratioP2
49890;SDS011;35780;55.568;37.492;2023-03-25T00:01:20;13.77;;;8.90;;
49890;SDS011;35780;55.568;37.492;2023-03-25T00:03:49;13.48;;;7.78;;
49890;SDS011;35780;55.568;37.492;2023-03-25T00:06:17;12.90;;;7.80;;
49890;SDS011;35780;55.568;37.492;2023-03-25T00:08:43;12.02;;;8.52;;
49890;SDS011;35780;55.568;37.492;2023-03-25T00:11:09;13.68;;;8.20;;
49890;SDS011;35780;55.568;37.492;2023-03-25T00:13:34;12.63;;;7.68;;
49890;SDS011;35780;55.568;37.492;2023-03-25T00:16:01;11.13;;;7.13;;
49890;SDS011;35780;55.568;37.492;2023-03-25T00:18:28;12.70;;;7.32;;
49890;SDS011;35780;55.568;37.492;2023-03-25T00:20:58;10.60;;;8.07;;
49890;SDS011;35780;55.568;37.492;2023-03-25T00:23:28;12.57;;;7.57;;
49890;SDS011;35780;55.568;37.492;2023-03-25T00:25:55;13.98;;;7.95;;
49890;SDS011;35780;55.568;37.492;2023-03-25T00:28:25;12.63;;;7.72;;
49890;SDS011;35780;55.568;37.492;2023-03-25T00:30:52;11.40;;;7.95;;
49890;SDS011;35780;55.568;37.492;2023-03-25T00:33:18;10.70;;;7.35;;
49890;SDS011;35780;55.568;37.492;2023-03-25T00:35:49;12.68;;;7.68;;
49890;SDS011;35780;55.568;37.492;2023-03-25T00:38:16;14.95;;;8.27;;
49890;SDS011;35780;55.568;37.492;2023-03-25T00:40:42;10.40;;;6.78;;
49890;SDS011;35780;55.568;37.492;2023-03-25T00:43:08;13.30;;;8.10;;
49890;SDS011;35780;55.568;37.492;2023-03-25T00:45:34;13.85;;;6.55;;
49890;SDS011;35780;55.568;37.492;2023-03-25T00:48:00;9.93;;;7.15;;
49890;SDS011;35780;55.568;37.492;2023-03-25T00:50:26;13.45;;;7.90;;
49890;SDS011;35780;55.568;37.492;2023-03-25T00:52:51;11.35;;;7.85;;
49890;SDS011;35780;55.568;37.492;2023-03-25T00:55:20;9.70;;;8.18;;
49890;SDS011;35780;55.568;37.492;2023-03-25T00:57:45;15.88;;;7.22;;
49890;SDS011;35780;55.568;37.492;2023-03-25T01:00:13;15.20;;;8.05;;
49890;SDS011;35780;55.568;37.492;2023-03-25T01:02:40;11.55;;;8.35;;
49890;SDS011;35780;55.568;37.492;2023-03-25T01:05:06;16.48;;;8.02;;
49890;SDS011;35780;55.568;37.492;2023-03-25T01:07:37;12.48;;;7.50;;
49890;SDS011;35780;55.568;37.492;2023-03-25T01:10:03;9.55;;;7.22;;
49890;SDS011;35780;55.568;37.492;2023-03-25T01:12:29;13.38;;;8.20;;
49890;SDS011;35780;55.568;37.492;2023-03-25T01:14:54;11.82;;;7.10;;
49890;SDS011;35780;55.568;37.492;2023-03-25T01:17:20;10.73;;;7.28;;
49890;SDS011;35780;55.568;37.492;2023-03-25T01:19:46;12.20;;;7.85;;
49890;SDS011;35780;55.568;37.492;2023-03-25T01:22:11;12.45;;;7.43;;
49890;SDS011;35780;55.568;37.492;2023-03-25T01:24:37;11.93;;;7.22;;
49890;SDS011;35780;55.568;37.492;2023-03-25T01:27:03;14.65;;;8.00;;
49890;SDS011;35780;55.568;37.492;2023-03-25T01:29:28;12.38;;;8.10;;
49890;SDS011;35780;55.568;37.492;2023-03-25T01:31:54;16.38;;;7.30;;
49890;SDS011;35780;55.568;37.492;2023-03-25T01:34:20;12.55;;;7.43;;
49890;SDS011;35780;55.568;37.492;2023-03-25T01:36:46;10.95;;;7.13;;
49890;SDS011;35780;55.568;37.492;2023-03-25T01:39:13;13.82;;;8.80;;
49890;SDS011;35780;55.568;37.492;2023-03-25T01:41:41;14.57;;;9.05;;
49890;SDS011;35780;55.568;37.492;2023-03-25T01:44:08;11.73;;;9.30;;
49890;SDS011;35780;55.568;37.492;2023-03-25T01:46:54;12.30;;;8.07;;
49890;SDS011;35780;55.568;37.492;2023-03-25T01:49:28;15.38;;;8.65;;
49890;SDS011;35780;55.568;37.492;2023-03-25T01:51:58;13.60;;;8.32;;
49890;SDS011;35780;55.568;37.492;2023-03-25T01:54:27;12.07;;;8.02;;
49890;SDS011;35780;55.568;37.492;2023-03-25T01:56:53;14.88;;;8.02;;
49890;SDS011;35780;55.568;37.492;2023-03-25T01:59:21;11.82;;;8.15;;
49890;SDS011;35780;55.568;37.492;2023-03-25T02:01:49;10.52;;;7.53;;
49890;SDS011;35780;55.568;37.492;2023-03-25T02:04:17;12.20;;;7.57;;
49890;SDS011;35780;55.568;37.492;2023-03-25T02:06:51;14.23;;;7.68;;
49890;SDS011;35780;55.568;37.492;2023-03-25T02:09:18;10.95;;;7.93;;
49890;SDS011;35780;55.568;37.492;2023-03-25T02:11:46;14.32;;;8.52;;
49890;SDS011;35780;55.568;37.492;2023-03-25T02:14:13;14.05;;;7.95;;
49890;SDS011;35780;55.568;37.492;2023-03-25T02:16:44;14.15;;;8.10;;
49890;SDS011;35780;55.568;37.492;2023-03-25T02:28:30;10.40;;;7.75;;
49890;SDS011;35780;55.568;37.492;2023-03-25T02:39:40;14.98;;;7.95;;
49890;SDS011;35780;55.568;37.492;2023-03-25T02:45:01;13.73;;;8.32;;
49890;SDS011;35780;55.568;37.492;2023-03-25T02:47:31;13.20;;;6.95;;
49890;SDS011;35780;55.568;37.492;2023-03-25T02:50:02;14.13;;;7.55;;
49890;SDS011;35780;55.568;37.492;2023-03-25T02:52:38;10.50;;;6.88;;
49890;SDS011;35780;55.568;37.492;2023-03-25T02:55:09;13.68;;;7.90;;
49890;SDS011;35780;55.568;37.492;2023-03-25T02:57:38;14.07;;;7.25;;
49890;SDS011;35780;55.568;37.492;2023-03-25T03:00:06;12.57;;;6.75;;
49890;SDS011;35780;55.568;37.492;2023-03-25T03:02:41;12.50;;;7.05;;
49890;SDS011;35780;55.568;37.492;2023-03-25T03:05:20;8.32;;;6.13;;
49890;SDS011;35780;55.568;37.492;2023-03-25T03:07:47;13.27;;;6.35;;
49890;SDS011;35780;55.568;37.492;2023-03-25T03:10:25;10.38;;;6.00;;
49890;SDS011;35780;55.568;37.492;2023-03-25T03:18:43;15.85;;;7.32;;
49890;SDS011;35780;55.568;37.492;2023-03-25T03:24:12;10.45;;;7.32;;
49890;SDS011;35780;55.568;37.492;2023-03-25T03:26:55;10.90;;;6.97;;
49890;SDS011;35780;55.568;37.492;2023-03-25T03:29:28;12.70;;;7.90;;
49890;SDS011;35780;55.568;37.492;2023-03-25T03:32:08;13.18;;;7.50;;
49890;SDS011;35780;55.568;37.492;2023-03-25T03:34:39;15.75;;;7.55;;
49890;SDS011;35780;55.568;37.492;2023-03-25T03:37:12;16.10;;;8.23;;
49890;SDS011;35780;55.568;37.492;2023-03-25T03:39:41;11.07;;;6.88;;
49890;SDS011;35780;55.568;37.492;2023-03-25T03:42:13;11.60;;;6.93;;
49890;SDS011;35780;55.568;37.492;2023-03-25T03:44:43;11.32;;;6.90;;
49890;SDS011;35780;55.568;37.492;2023-03-25T03:47:15;12.48;;;7.57;;
49890;SDS011;35780;55.568;37.492;2023-03-25T03:49:44;13.75;;;7.05;;
49890;SDS011;35780;55.568;37.492;2023-03-25T03:52:22;10.90;;;7.28;;
49890;SDS011;35780;55.568;37.492;2023-03-25T03:54:51;19.13;;;6.80;;
49890;SDS011;35780;55.568;37.492;2023-03-25T03:57:32;11.98;;;6.78;;
49890;SDS011;35780;55.568;37.492;2023-03-25T04:00:17;11.50;;;5.65;;
49890;SDS011;35780;55.568;37.492;2023-03-25T04:02:51;11.50;;;7.20;;
49890;SDS011;35780;55.568;37.492;2023-03-25T04:05:22;7.97;;;5.80;;
49890;SDS011;35780;55.568;37.492;2023-03-25T04:07:52;10.80;;;5.72;;
49890;SDS011;35780;55.568;37.492;2023-03-25T04:10:26;11.07;;;6.05;;
49890;SDS011;35780;55.568;37.492;2023-03-25T04:12:59;11.50;;;6.68;;
49890;SDS011;35780;55.568;37.492;2023-03-25T04:15:26;9.57;;;6.05;;
49890;SDS011;35780;55.568;37.492;2023-03-25T04:17:52;8.43;;;5.28;;
49890;SDS011;35780;55.568;37.492;2023-03-25T04:20:22;10.73;;;5.60;;
49890;SDS011;35780;55.568;37.492;2023-03-25T04:22:50;9.30;;;5.30;;
49890;SDS011;35780;55.568;37.492;2023-03-25T04:25:17;11.77;;;6.65;;
49890;SDS011;35780;55.568;37.492;2023-03-25T04:27:45;8.63;;;5.22;;
49890;SDS011;35780;55.568;37.492;2023-03-25T04:30:13;13.13;;;5.32;;
49890;SDS011;35780;55.568;37.492;2023-03-25T04:32:42;9.25;;;5.85;;
49890;SDS011;35780;55.568;37.492;2023-03-25T04:35:12;13.00;;;5.70;;
49890;SDS011;35780;55.568;37.492;2023-03-25T04:37:42;7.87;;;5.53;;
49890;SDS011;35780;55.568;37.492;2023-03-25T04:40:13;10.48;;;4.88;;
49890;SDS011;35780;55.568;37.492;2023-03-25T04:42:45;8.07;;;5.22;;
49890;SDS011;35780;55.568;37.492;2023-03-25T04:45:12;10.43;;;5.25;;
49890;SDS011;35780;55.568;37.492;2023-03-25T04:47:44;8.30;;;4.93;;
49890;SDS011;35780;55.568;37.492;2023-03-25T04:50:18;10.43;;;4.68;;
49890;SDS011;35780;55.568;37.492;2023-03-25T04:52:46;13.90;;;6.28;;
49890;SDS011;35780;55.568;37.492;2023-03-25T04:55:12;6.80;;;4.47;;
49890;SDS011;35780;55.568;37.492;2023-03-25T04:57:46;8.02;;;4.20;;
49890;SDS011;35780;55.568;37.492;2023-03-25T05:00:13;8.77;;;4.95;;
49890;SDS011;35780;55.568;37.492;2023-03-25T05:02:44;10.45;;;5.97;;
49890;SDS011;35780;55.568;37.492;2023-03-25T05:05:10;9.75;;;5.65;;
49890;SDS011;35780;55.568;37.492;2023-03-25T05:07:42;8.55;;;6.22;;
49890;SDS011;35780;55.568;37.492;2023-03-25T05:10:26;9.63;;;5.80;;
49890;SDS011;35780;55.568;37.492;2023-03-25T05:13:01;9.35;;;5.03;;
49890;SDS011;35780;55.568;37.492;2023-03-25T05:15:32;10.32;;;6.00;;
49890;SDS011;35780;55.568;37.492;2023-03-25T05:18:07;9.30;;;5.88;;
49890;SDS011;35780;55.568;37.492;2023-03-25T05:20:37;10.82;;;5.32;;
49890;SDS011;35780;55.568;37.492;2023-03-25T05:23:07;8.77;;;6.00;;
49890;SDS011;35780;55.568;37.492;2023-03-25T05:28:05;8.32;;;5.65;;
49890;SDS011;35780;55.568;37.492;2023-03-25T05:30:35;10.38;;;6.00;;
49890;SDS011;35780;55.568;37.492;2023-03-25T05:33:13;9.43;;;6.40;;
49890;SDS011;35780;55.568;37.492;2023-03-25T05:35:40;9.75;;;6.20;;
49890;SDS011;35780;55.568;37.492;2023-03-25T05:38:06;11.02;;;6.38;;
49890;SDS011;35780;55.568;37.492;2023-03-25T05:40:33;10.85;;;6.60;;
49890;SDS011;35780;55.568;37.492;2023-03-25T05:42:59;11.35;;;6.03;;
49890;SDS011;35780;55.568;37.492;2023-03-25T05:45:24;10.15;;;6.80;;
49890;SDS011;35780;55.568;37.492;2023-03-25T05:47:50;9.90;;;5.10;;
49890;SDS011;35780;55.568;37.492;2023-03-25T05:50:16;11.30;;;6.00;;
49890;SDS011;35780;55.568;37.492;2023-03-25T05:52:42;14.07;;;7.68;;
49890;SDS011;35780;55.568;37.492;2023-03-25T05:55:18;12.65;;;7.75;;
49890;SDS011;35780;55.568;37.492;2023-03-25T05:57:45;10.68;;;6.47;;
49890;SDS011;35780;55.568;37.492;2023-03-25T06:00:12;12.93;;;6.78;;
49890;SDS011;35780;55.568;37.492;2023-03-25T06:02:39;17.42;;;7.03;;
49890;SDS011;35780;55.568;37.492;2023-03-25T06:05:10;11.23;;;6.07;;
49890;SDS011;35780;55.568;37.492;2023-03-25T06:07:41;8.40;;;5.65;;
49890;SDS011;35780;55.568;37.492;2023-03-25T06:10:08;12.60;;;6.82;;
49890;SDS011;35780;55.568;37.492;2023-03-25T06:12:34;10.77;;;6.82;;
49890;SDS011;35780;55.568;37.492;2023-03-25T06:15:06;10.65;;;6.38;;
49890;SDS011;35780;55.568;37.492;2023-03-25T06:17:33;7.78;;;5.78;;
49890;SDS011;35780;55.568;37.492;2023-03-25T06:20:03;10.20;;;5.15;;
49890;SDS011;35780;55.568;37.492;2023-03-25T06:22:38;8.15;;;5.13;;
49890;SDS011;35780;55.568;37.492;2023-03-25T06:25:05;8.90;;;5.40;;
49890;SDS011;35780;55.568;37.492;2023-03-25T06:27:31;8.20;;;5.22;;
49890;SDS011;35780;55.568;37.492;2023-03-25T06:29:59;7.72;;;5.05;;
49890;SDS011;35780;55.568;37.492;2023-03-25T06:32:25;11.13;;;5.93;;
49890;SDS011;35780;55.568;37.492;2023-03-25T06:34:51;9.57;;;6.20;;
49890;SDS011;35780;55.568;37.492;2023-03-25T06:37:17;10.15;;;5.68;;
49890;SDS011;35780;55.568;37.492;2023-03-25T06:39:42;11.70;;;6.50;;
49890;SDS011;35780;55.568;37.492;2023-03-25T06:42:13;13.10;;;7.15;;
49890;SDS011;35780;55.568;37.492;2023-03-25T06:44:39;10.00;;;6.88;;
49890;SDS011;35780;55.568;37.492;2023-03-25T06:47:05;10.93;;;7.00;;
49890;SDS011;35780;55.568;37.492;2023-03-25T06:49:31;14.77;;;7.57;;
49890;SDS011;35780;55.568;37.492;2023-03-25T06:51:56;9.77;;;7.30;;
49890;SDS011;35780;55.568;37.492;2023-03-25T06:54:22;11.55;;;7.70;;
49890;SDS011;35780;55.568;37.492;2023-03-25T06:56:48;14.27;;;7.30;;
49890;SDS011;35780;55.568;37.492;2023-03-25T06:59:13;11.18;;;7.55;;
49890;SDS011;35780;55.568;37.492;2023-03-25T07:01:39;12.60;;;8.93;;
49890;SDS011;35780;55.568;37.492;2023-03-25T07:04:05;13.23;;;8.00;;
49890;SDS011;35780;55.568;37.492;2023-03-25T07:06:30;14.10;;;8.55;;
49890;SDS011;35780;55.568;37.492;2023-03-25T07:08:56;11.98;;;8.00;;
49890;SDS011;35780;55.568;37.492;2023-03-25T07:11:25;12.45;;;8.88;;
49890;SDS011;35780;55.568;37.492;2023-03-25T07:13:53;17.98;;;10.32;;
49890;SDS011;35780;55.568;37.492;2023-03-25T07:16:19;12.68;;;8.70;;
49890;SDS011;35780;55.568;37.492;2023-03-25T07:18:47;13.70;;;7.78;;
49890;SDS011;35780;55.568;37.492;2023-03-25T07:21:14;15.75;;;9.00;;
49890;SDS011;35780;55.568;37.492;2023-03-25T07:23:40;15.38;;;7.18;;
49890;SDS011;35780;55.568;37.492;2023-03-25T07:26:05;15.02;;;10.98;;
49890;SDS011;35780;55.568;37.492;2023-03-25T07:28:31;14.40;;;9.25;;
49890;SDS011;35780;55.568;37.492;2023-03-25T07:30:57;13.85;;;8.00;;
49890;SDS011;35780;55.568;37.492;2023-03-25T07:33:22;14.80;;;9.77;;
49890;SDS011;35780;55.568;37.492;2023-03-25T07:35:48;17.05;;;8.27;;
49890;SDS011;35780;55.568;37.492;2023-03-25T07:38:13;15.05;;;9.43;;
49890;SDS011;35780;55.568;37.492;2023-03-25T07:40:39;14.82;;;9.25;;
49890;SDS011;35780;55.568;37.492;2023-03-25T07:43:05;13.45;;;7.57;;
49890;SDS011;35780;55.568;37.492;2023-03-25T07:45:30;13.90;;;9.05;;
49890;SDS011;35780;55.568;37.492;2023-03-25T07:47:56;16.15;;;9.50;;
49890;SDS011;35780;55.568;37.492;2023-03-25T07:50:22;15.30;;;9.40;;
49890;SDS011;35780;55.568;37.492;2023-03-25T07:52:47;12.43;;;9.70;;
49890;SDS011;35780;55.568;37.492;2023-03-25T07:55:13;16.90;;;10.23;;
49890;SDS011;35780;55.568;37.492;2023-03-25T07:57:39;14.45;;;9.77;;
49890;SDS011;35780;55.568;37.492;2023-03-25T08:00:06;14.15;;;8.93;;
49890;SDS011;35780;55.568;37.492;2023-03-25T08:02:32;16.98;;;9.43;;
49890;SDS011;35780;55.568;37.492;2023-03-25T08:04:58;16.38;;;9.48;;
49890;SDS011;35780;55.568;37.492;2023-03-25T08:07:24;14.70;;;9.50;;
49890;SDS011;35780;55.568;37.492;2023-03-25T08:09:49;11.50;;;7.63;;
49890;SDS011;35780;55.568;37.492;2023-03-25T08:12:15;17.33;;;8.13;;
49890;SDS011;35780;55.568;37.492;2023-03-25T08:14:40;14.50;;;9.98;;
49890;SDS011;35780;55.568;37.492;2023-03-25T08:17:06;13.73;;;10.50;;
49890;SDS011;35780;55.568;37.492;2023-03-25T08:19:31;13.63;;;10.27;;
49890;SDS011;35780;55.568;37.492;2023-03-25T08:21:57;15.35;;;8.60;;
49890;SDS011;35780;55.568;37.492;2023-03-25T08:24:23;15.88;;;9.98;;
49890;SDS011;35780;55.568;37.492;2023-03-25T08:26:51;17.52;;;10.52;;
49890;SDS011;35780;55.568;37.492;2023-03-25T08:29:18;14.32;;;10.00;;
49890;SDS011;35780;55.568;37.492;2023-03-25T08:31:44;16.05;;;11.18;;
49890;SDS011;35780;55.568;37.492;2023-03-25T08:34:11;16.77;;;11.32;;
49890;SDS011;35780;55.568;37.492;2023-03-25T08:36:38;15.90;;;11.80;;
49890;SDS011;35780;55.568;37.492;2023-03-25T08:39:04;16.15;;;11.95;;
49890;SDS011;35780;55.568;37.492;2023-03-25T08:41:33;17.27;;;12.10;;
49890;SDS011;35780;55.568;37.492;2023-03-25T08:43:59;20.75;;;11.93;;
49890;SDS011;35780;55.568;37.492;2023-03-25T08:46:25;18.05;;;12.88;;
49890;SDS011;35780;55.568;37.492;2023-03-25T08:48:50;23.95;;;15.65;;
49890;SDS011;35780;55.568;37.492;2023-03-25T08:51:17;24.85;;;16.40;;
49890;SDS011;35780;55.568;37.492;2023-03-25T08:53:43;16.40;;;12.68;;
49890;SDS011;35780;55.568;37.492;2023-03-25T08:56:08;20.83;;;13.98;;
49890;SDS011;35780;55.568;37.492;2023-03-25T08:58:35;19.38;;;14.77;;
49890;SDS011;35780;55.568;37.492;2023-03-25T09:01:00;21.50;;;14.82;;
49890;SDS011;35780;55.568;37.492;2023-03-25T09:03:26;22.92;;;14.05;;
49890;SDS011;35780;55.568;37.492;2023-03-25T09:05:52;20.88;;;14.77;;
49890;SDS011;35780;55.568;37.492;2023-03-25T09:08:17;22.27;;;15.20;;
49890;SDS011;35780;55.568;37.492;2023-03-25T09:10:43;19.05;;;14.10;;
49890;SDS011;35780;55.568;37.492;2023-03-25T09:13:09;27.13;;;17.63;;
49890;SDS011;35780;55.568;37.492;2023-03-25T09:15:34;20.63;;;14.30;;
49890;SDS011;35780;55.568;37.492;2023-03-25T09:18:00;26.95;;;16.50;;
49890;SDS011;35780;55.568;37.492;2023-03-25T09:20:25;20.77;;;14.10;;
49890;SDS011;35780;55.568;37.492;2023-03-25T09:22:51;26.52;;;15.32;;
49890;SDS011;35780;55.568;37.492;2023-03-25T09:25:17;19.00;;;13.65;;
49890;SDS011;35780;55.568;37.492;2023-03-25T09:27:42;21.00;;;13.88;;
49890;SDS011;35780;55.568;37.492;2023-03-25T09:30:08;23.63;;;17.35;;
49890;SDS011;35780;55.568;37.492;2023-03-25T09:32:34;20.67;;;15.27;;
49890;SDS011;35780;55.568;37.492;2023-03-25T09:35:00;25.40;;;16.20;;
49890;SDS011;35780;55.568;37.492;2023-03-25T09:37:25;24.45;;;16.80;;
49890;SDS011;35780;55.568;37.492;2023-03-25T09:39:51;21.60;;;15.88;;
49890;SDS011;35780;55.568;37.492;2023-03-25T09:42:32;26.13;;;16.13;;
49890;SDS011;35780;55.568;37.492;2023-03-25T09:48:02;25.67;;;16.58;;
49890;SDS011;35780;55.568;37.492;2023-03-25T09:50:48;25.13;;;14.40;;
49890;SDS011;35780;55.568;37.492;2023-03-25T09:55:48;19.10;;;14.18;;
49890;SDS011;35780;55.568;37.492;2023-03-25T10:00:47;20.98;;;15.88;;
49890;SDS011;35780;55.568;37.492;2023-03-25T10:03:17;22.90;;;16.08;;
49890;SDS011;35780;55.568;37.492;2023-03-25T10:05:57;20.48;;;15.00;;
49890;SDS011;35780;55.568;37.492;2023-03-25T10:11:43;20.85;;;13.68;;
49890;SDS011;35780;55.568;37.492;2023-03-25T10:14:20;19.27;;;15.18;;
49890;SDS011;35780;55.568;37.492;2023-03-25T10:19:44;22.10;;;16.27;;
49890;SDS011;35780;55.568;37.492;2023-03-25T10:25:24;21.10;;;16.00;;
49890;SDS011;35780;55.568;37.492;2023-03-25T10:27:52;21.92;;;16.50;;
49890;SDS011;35780;55.568;37.492;2023-03-25T10:30:37;19.90;;;16.02;;
49890;SDS011;35780;55.568;37.492;2023-03-25T10:33:17;19.50;;;14.85;;
49890;SDS011;35780;55.568;37.492;2023-03-25T10:35:47;20.83;;;14.48;;
49890;SDS011;35780;55.568;37.492;2023-03-25T10:38:16;23.45;;;17.58;;
49890;SDS011;35780;55.568;37.492;2023-03-25T10:40:48;23.58;;;17.05;;
49890;SDS011;35780;55.568;37.492;2023-03-25T10:45:47;23.27;;;16.75;;
49890;SDS011;35780;55.568;37.492;2023-03-25T10:48:23;20.67;;;14.82;;
49890;SDS011;35780;55.568;37.492;2023-03-25T10:51:00;28.00;;;17.05;;
49890;SDS011;35780;55.568;37.492;2023-03-25T10:53:33;22.77;;;15.73;;
49890;SDS011;35780;55.568;37.492;2023-03-25T10:56:03;22.02;;;17.08;;
49890;SDS011;35780;55.568;37.492;2023-03-25T10:58:38;24.25;;;17.15;;
49890;SDS011;35780;55.568;37.492;2023-03-25T11:01:12;21.45;;;17.95;;
49890;SDS011;35780;55.568;37.492;2023-03-25T11:03:39;24.15;;;16.77;;
49890;SDS011;35780;55.568;37.492;2023-03-25T11:06:06;21.63;;;16.70;;
49890;SDS011;35780;55.568;37.492;2023-03-25T11:08:32;22.65;;;15.38;;
49890;SDS011;35780;55.568;37.492;2023-03-25T11:10:58;21.33;;;15.07;;
49890;SDS011;35780;55.568;37.492;2023-03-25T11:13:28;24.33;;;15.80;;
49890;SDS011;35780;55.568;37.492;2023-03-25T11:15:58;23.40;;;17.25;;
49890;SDS011;35780;55.568;37.492;2023-03-25T11:18:33;21.85;;;17.17;;
49890;SDS011;35780;55.568;37.492;2023-03-25T11:21:04;17.88;;;14.70;;
49890;SDS011;35780;55.568;37.492;2023-03-25T11:26:05;22.13;;;16.00;;
49890;SDS011;35780;55.568;37.492;2023-03-25T11:28:38;23.27;;;16.80;;
49890;SDS011;35780;55.568;37.492;2023-03-25T11:33:36;21.10;;;15.57;;
49890;SDS011;35780;55.568;37.492;2023-03-25T11:36:09;23.05;;;17.42;;
49890;SDS011;35780;55.568;37.492;2023-03-25T11:38:49;26.45;;;17.88;;
49890;SDS011;35780;55.568;37.492;2023-03-25T11:41:17;24.27;;;17.25;;
49890;SDS011;35780;55.568;37.492;2023-03-25T11:43:42;25.55;;;20.00;;
49890;SDS011;35780;55.568;37.492;2023-03-25T11:46:13;23.27;;;15.90;;
49890;SDS011;35780;55.568;37.492;2023-03-25T11:48:41;30.63;;;21.02;;
49890;SDS011;35780;55.568;37.492;2023-03-25T11:51:12;23.77;;;17.38;;
49890;SDS011;35780;55.568;37.492;2023-03-25T11:53:43;21.92;;;15.77;;
49890;SDS011;35780;55.568;37.492;2023-03-25T11:56:10;25.75;;;16.75;;
49890;SDS011;35780;55.568;37.492;2023-03-25T11:58:40;22.88;;;16.00;;
49890;SDS011;35780;55.568;37.492;2023-03-25T12:01:09;18.67;;;13.95;;
49890;SDS011;35780;55.568;37.492;2023-03-25T12:03:49;25.27;;;16.27;;
49890;SDS011;35780;55.568;37.492;2023-03-25T12:06:17;18.65;;;14.07;;
49890;SDS011;35780;55.568;37.492;2023-03-25T12:08:57;22.60;;;15.77;;
49890;SDS011;35780;55.568;37.492;2023-03-25T12:22:12;22.30;;;16.70;;
49890;SDS011;35780;55.568;37.492;2023-03-25T12:33:23;23.48;;;15.40;;
49890;SDS011;35780;55.568;37.492;2023-03-25T12:39:04;22.50;;;15.85;;
49890;SDS011;35780;55.568;37.492;2023-03-25T12:41:36;24.65;;;17.77;;
49890;SDS011;35780;55.568;37.492;2023-03-25T12:44:20;21.08;;;15.18;;
49890;SDS011;35780;55.568;37.492;2023-03-25T12:49:59;27.73;;;18.85;;
49890;SDS011;35780;55.568;37.492;2023-03-25T12:52:46;30.90;;;17.75;;
49890;SDS011;35780;55.568;37.492;2023-03-25T13:03:40;24.98;;;16.90;;
49890;SDS011;35780;55.568;37.492;2023-03-25T13:14:23;27.40;;;16.60;;
49890;SDS011;35780;55.568;37.492;2023-03-25T13:16:53;23.50;;;16.48;;
49890;SDS011;35780;55.568;37.492;2023-03-25T13:19:23;23.90;;;16.05;;
49890;SDS011;35780;55.568;37.492;2023-03-25T13:21:51;18.90;;;14.80;;
49890;SDS011;35780;55.568;37.492;2023-03-25T13:26:58;21.95;;;15.25;;
49890;SDS011;35780;55.568;37.492;2023-03-25T13:29:38;21.35;;;15.13;;
49890;SDS011;35780;55.568;37.492;2023-03-25T13:32:09;22.48;;;14.32;;
49890;SDS011;35780;55.568;37.492;2023-03-25T13:34:43;21.55;;;16.05;;
49890;SDS011;35780;55.568;37.492;2023-03-25T13:40:21;21.33;;;15.40;;
49890;SDS011;35780;55.568;37.492;2023-03-25T13:42:52;16.92;;;13.18;;
49890;SDS011;35780;55.568;37.492;2023-03-25T13:45:22;21.88;;;13.25;;
49890;SDS011;35780;55.568;37.492;2023-03-25T13:47:51;19.77;;;14.65;;
49890;SDS011;35780;55.568;37.492;2023-03-25T13:50:23;19.98;;;14.63;;
49890;SDS011;35780;55.568;37.492;2023-03-25T13:52:54;20.30;;;15.30;;
49890;SDS011;35780;55.568;37.492;2023-03-25T13:55:33;18.77;;;16.00;;
49890;SDS011;35780;55.568;37.492;2023-03-25T14:12:13;22.08;;;13.60;;
49890;SDS011;35780;55.568;37.492;2023-03-25T14:14:42;17.58;;;13.75;;
49890;SDS011;35780;55.568;37.492;2023-03-25T14:17:10;21.75;;;14.18;;
49890;SDS011;35780;55.568;37.492;2023-03-25T14:19:36;21.25;;;15.13;;
49890;SDS011;35780;55.568;37.492;2023-03-25T14:22:12;19.75;;;14.63;;
49890;SDS011;35780;55.568;37.492;2023-03-25T14:24:40;17.85;;;13.07;;
49890;SDS011;35780;55.568;37.492;2023-03-25T14:27:06;20.20;;;14.68;;
49890;SDS011;35780;55.568;37.492;2023-03-25T14:30:22;17.77;;;13.13;;
49890;SDS011;35780;55.568;37.492;2023-03-25T14:32:36;16.58;;;12.70;;
49890;SDS011;35780;55.568;37.492;2023-03-25T14:43:25;24.38;;;16.95;;
49890;SDS011;35780;55.568;37.492;2023-03-25T14:59:59;14.98;;;13.38;;
49890;SDS011;35780;55.568;37.492;2023-03-25T15:02:29;15.73;;;12.02;;
49890;SDS011;35780;55.568;37.492;2023-03-25T15:08:09;20.45;;;12.88;;
49890;SDS011;35780;55.568;37.492;2023-03-25T15:10:30;14.50;;;12.13;;
49890;SDS011;35780;55.568;37.492;2023-03-25T15:18:09;14.05;;;11.57;;
49890;SDS011;35780;55.568;37.492;2023-03-25T15:20:36;13.88;;;10.68;;
49890;SDS011;35780;55.568;37.492;2023-03-25T15:25:43;19.48;;;13.30;;
49890;SDS011;35780;55.568;37.492;2023-03-25T15:28:16;20.35;;;13.98;;
49890;SDS011;35780;55.568;37.492;2023-03-25T15:55:13;20.85;;;12.82;;
49890;SDS011;35780;55.568;37.492;2023-03-25T15:57:44;20.15;;;13.35;;
49890;SDS011;35780;55.568;37.492;2023-03-25T16:00:19;18.42;;;13.68;;
49890;SDS011;35780;55.568;37.492;2023-03-25T16:05:26;17.45;;;12.45;;
49890;SDS011;35780;55.568;37.492;2023-03-25T16:07:53;15.27;;;11.77;;
49890;SDS011;35780;55.568;37.492;2023-03-25T16:10:29;17.65;;;12.52;;
49890;SDS011;35780;55.568;37.492;2023-03-25T16:13:00;16.80;;;14.52;;
49890;SDS011;35780;55.568;37.492;2023-03-25T16:15:28;16.98;;;14.57;;
49890;SDS011;35780;55.568;37.492;2023-03-25T16:17:55;22.48;;;15.25;;
49890;SDS011;35780;55.568;37.492;2023-03-25T16:20:22;21.10;;;15.77;;
49890;SDS011;35780;55.568;37.492;2023-03-25T16:22:52;21.95;;;16.67;;
49890;SDS011;35780;55.568;37.492;2023-03-25T16:25:21;19.33;;;16.10;;
49890;SDS011;35780;55.568;37.492;2023-03-25T16:27:54;23.30;;;16.00;;
49890;SDS011;35780;55.568;37.492;2023-03-25T16:30:25;23.33;;;17.25;;
49890;SDS011;35780;55.568;37.492;2023-03-25T16:35:37;20.75;;;16.20;;
49890;SDS011;35780;55.568;37.492;2023-03-25T16:38:07;21.67;;;17.58;;
49890;SDS011;35780;55.568;37.492;2023-03-25T16:40:39;30.70;;;19.98;;
49890;SDS011;35780;55.568;37.492;2023-03-25T16:43:27;24.75;;;19.50;;
49890;SDS011;35780;55.568;37.492;2023-03-25T16:45:52;26.58;;;19.50;;
49890;SDS011;35780;55.568;37.492;2023-03-25T16:48:22;24.30;;;19.45;;
49890;SDS011;35780;55.568;37.492;2023-03-25T16:50:51;24.23;;;19.13;;
49890;SDS011;35780;55.568;37.492;2023-03-25T16:53:17;23.05;;;17.98;;
49890;SDS011;35780;55.568;37.492;2023-03-25T16:55:48;26.63;;;18.88;;
49890;SDS011;35780;55.568;37.492;2023-03-25T16:58:24;23.92;;;18.27;;
49890;SDS011;35780;55.568;37.492;2023-03-25T17:00:52;23.73;;;19.30;;
49890;SDS011;35780;55.568;37.492;2023-03-25T17:04:05;30.48;;;22.00;;
49890;SDS011;35780;55.568;37.492;2023-03-25T17:06:11;25.55;;;19.23;;
49890;SDS011;35780;55.568;37.492;2023-03-25T17:08:38;22.20;;;17.23;;
49890;SDS011;35780;55.568;37.492;2023-03-25T17:11:04;29.42;;;20.77;;
49890;SDS011;35780;55.568;37.492;2023-03-25T17:13:45;26.63;;;18.50;;
49890;SDS011;35780;55.568;37.492;2023-03-25T17:16:19;26.73;;;18.67;;
49890;SDS011;35780;55.568;37.492;2023-03-25T17:18:46;23.25;;;17.05;;
49890;SDS011;35780;55.568;37.492;2023-03-25T17:21:18;23.67;;;17.90;;
49890;SDS011;35780;55.568;37.492;2023-03-25T17:23:50;21.27;;;17.70;;
49890;SDS011;35780;55.568;37.492;2023-03-25T17:26:18;22.92;;;17.48;;
49890;SDS011;35780;55.568;37.492;2023-03-25T17:34:03;26.05;;;19.25;;
49890;SDS011;35780;55.568;37.492;2023-03-25T17:36:42;23.30;;;19.05;;